Time;durP1;ratioP1;P1;durP2;ratioP2;P2;SDS_P1;SDS_P2;PMS_P1;PMS_P2;Temp;Humidity;BMP_temperature;BMP_pressure;BME280_temperature;BME280_humidity;BME280_pressure;Samples;Min_cycle;Max_cycle;Signal;HPM_P1;HPM_P2
2023/03/17 00:00:32;;;;;;;9.55;6.32;;;3.30;78.00;;;;;;5106607;28;20234;-70
2023/03/17 00:03:00;;;;;;;8.35;6.10;;;3.30;78.00;;;;;;5094925;28;20192;-70
2023/03/17 00:05:33;;;;;;;13.27;7.43;;;3.30;77.80;;;;;;5097985;28;20191;-71
2023/03/17 00:08:15;;;;;;;12.43;7.55;;;3.20;77.90;;;;;;5104165;28;20192;-70
2023/03/17 00:10:47;;;;;;;11.57;7.00;;;3.20;77.60;;;;;;5109145;28;21171;-70
2023/03/17 00:13:23;;;;;;;11.35;8.35;;;3.20;77.20;;;;;;5095988;28;20194;-70
2023/03/17 00:16:07;;;;;;;14.75;10.35;;;3.20;77.60;;;;;;5101218;28;20574;-72
2023/03/17 00:18:37;;;;;;;15.88;9.63;;;3.10;77.60;;;;;;5115323;28;20195;-70
2023/03/17 00:21:10;;;;;;;14.40;9.00;;;3.10;78.10;;;;;;5114678;28;20226;-70
2023/03/17 00:23:50;;;;;;;11.38;6.90;;;3.10;77.80;;;;;;5115753;28;20190;-70
2023/03/17 00:26:25;;;;;;;9.23;6.22;;;3.10;77.70;;;;;;5115048;28;20274;-70
2023/03/17 00:28:58;;;;;;;7.05;4.40;;;3.10;78.60;;;;;;5114493;28;20191;-71
2023/03/17 00:31:34;;;;;;;6.18;4.90;;;3.10;79.00;;;;;;5114291;28;20214;-70
2023/03/17 00:34:03;;;;;;;12.40;5.75;;;3.00;79.40;;;;;;5115670;28;20195;-75
2023/03/17 00:36:36;;;;;;;9.32;5.53;;;3.00;79.80;;;;;;5113897;28;20283;-71
2023/03/17 00:39:12;;;;;;;13.18;6.05;;;3.10;80.00;;;;;;5115390;28;20236;-70
2023/03/17 00:41:48;;;;;;;10.27;6.65;;;3.10;79.60;;;;;;5114187;28;20191;-70
2023/03/17 00:44:24;;;;;;;10.68;7.57;;;3.10;79.40;;;;;;5115298;28;20195;-70
2023/03/17 00:46:53;;;;;;;14.00;9.45;;;3.10;78.90;;;;;;5113682;28;20187;-70
2023/03/17 00:49:25;;;;;;;12.40;9.65;;;3.10;79.20;;;;;;5115313;28;20210;-70
2023/03/17 00:51:55;;;;;;;16.08;8.20;;;3.10;79.00;;;;;;5114547;28;20225;-69
2023/03/17 00:54:32;;;;;;;11.07;8.05;;;3.00;79.60;;;;;;5115200;28;20252;-70
2023/03/17 00:57:04;;;;;;;8.95;6.50;;;3.10;79.80;;;;;;5114129;28;20190;-70
2023/03/17 00:59:41;;;;;;;11.55;7.43;;;3.10;80.40;;;;;;5114705;28;20230;-70
2023/03/17 01:02:11;;;;;;;11.10;6.30;;;3.10;79.30;;;;;;5132832;27;20224;-70
2023/03/17 01:04:46;;;;;;;8.55;6.07;;;3.10;78.40;;;;;;5134949;27;20190;-69
2023/03/17 01:07:18;;;;;;;9.65;6.15;;;3.00;77.70;;;;;;5134082;27;20182;-70
2023/03/17 01:09:55;;;;;;;7.70;5.57;;;2.90;78.10;;;;;;5134220;27;20186;-70
2023/03/17 01:12:29;;;;;;;7.68;5.28;;;2.90;77.80;;;;;;5135326;27;20304;-69
2023/03/17 01:15:03;;;;;;;6.85;5.32;;;2.90;78.20;;;;;;5132394;27;20651;-71
2023/03/17 01:17:36;;;;;;;7.53;5.00;;;2.90;78.20;;;;;;5135128;27;20229;-70
2023/03/17 01:20:23;;;;;;;10.90;4.95;;;2.90;77.70;;;;;;5134318;27;20191;-70
2023/03/17 01:23:04;;;;;;;9.80;4.85;;;2.90;78.10;;;;;;5135070;27;20205;-70
2023/03/17 01:25:37;;;;;;;11.80;4.88;;;2.80;77.70;;;;;;5134298;27;20195;-70
2023/03/17 01:28:11;;;;;;;12.38;5.03;;;2.80;77.40;;;;;;5133217;27;20253;-70
2023/03/17 01:30:44;;;;;;;5.13;3.60;;;2.80;77.10;;;;;;5133649;27;20182;-70
2023/03/17 01:33:15;;;;;;;7.55;3.72;;;2.80;77.00;;;;;;5134823;27;20253;-70
2023/03/17 01:35:51;;;;;;;6.65;4.60;;;2.70;77.50;;;;;;5132859;27;20193;-70
2023/03/17 01:38:23;;;;;;;6.50;4.28;;;2.60;78.40;;;;;;5135000;27;20197;-70
2023/03/17 01:41:02;;;;;;;5.65;3.88;;;2.60;78.90;;;;;;5134326;27;20182;-69
2023/03/17 01:43:48;;;;;;;6.70;4.75;;;2.60;79.50;;;;;;5134449;27;20190;-70
2023/03/17 01:46:26;;;;;;;7.88;4.03;;;2.60;80.50;;;;;;5134403;27;20548;-70
2023/03/17 01:49:11;;;;;;;6.43;4.32;;;2.50;80.00;;;;;;5134818;27;20557;-69
2023/03/17 01:51:50;;;;;;;5.43;4.13;;;2.60;80.30;;;;;;5131044;27;20593;-70
2023/03/17 01:54:40;;;;;;;4.97;3.53;;;2.60;81.10;;;;;;5134499;27;20188;-70
2023/03/17 01:57:20;;;;;;;7.55;4.38;;;2.60;80.90;;;;;;5133513;27;20181;-69
2023/03/17 01:59:52;;;;;;;8.80;4.82;;;2.60;81.00;;;;;;5134408;27;20223;-70
2023/03/17 02:02:29;;;;;;;6.25;3.88;;;2.50;80.70;;;;;;5132583;27;20213;-69
2023/03/17 02:04:59;;;;;;;6.45;4.15;;;2.60;81.00;;;;;;5133723;27;20202;-70
2023/03/17 02:07:32;;;;;;;6.38;3.95;;;2.50;81.00;;;;;;5133929;27;20601;-70
2023/03/17 02:10:19;;;;;;;6.65;4.07;;;2.50;80.60;;;;;;5133934;27;20269;-70
2023/03/17 02:12:58;;;;;;;6.50;4.18;;;2.40;81.10;;;;;;5113689;28;20607;-70
2023/03/17 02:15:44;;;;;;;6.90;3.70;;;2.30;81.60;;;;;;5126345;27;20190;-70
2023/03/17 02:18:17;;;;;;;10.00;4.20;;;2.30;82.10;;;;;;5129367;27;20231;-70
2023/03/17 02:21:33;;;;;;;6.00;3.92;;;2.30;82.50;;;;;;5133387;27;20228;-69
2023/03/17 02:24:08;;;;;;;11.18;5.03;;;2.40;82.50;;;;;;5133656;27;20193;-70
2023/03/17 02:26:46;;;;;;;7.45;5.13;;;2.40;82.00;;;;;;5132627;27;20186;-71
2023/03/17 02:29:20;;;;;;;9.05;6.60;;;2.40;80.70;;;;;;5133289;27;20216;-70
2023/03/17 02:31:51;;;;;;;9.38;6.10;;;2.40;81.10;;;;;;5132273;27;20206;-69
2023/03/17 02:34:24;;;;;;;5.63;4.47;;;2.40;81.00;;;;;;5133240;27;20193;-69
2023/03/17 02:36:57;;;;;;;6.85;4.47;;;2.40;80.90;;;;;;5133766;27;20707;-70
2023/03/17 02:39:26;;;;;;;5.70;4.07;;;2.50;81.40;;;;;;5131610;27;20190;-70
2023/03/17 02:41:59;;;;;;;7.15;4.30;;;2.40;81.70;;;;;;5132745;27;20595;-69
2023/03/17 02:44:42;;;;;;;8.10;4.80;;;2.40;81.60;;;;;;5132465;27;20190;-70
2023/03/17 02:47:14;;;;;;;9.18;5.43;;;2.40;81.50;;;;;;5133441;27;20204;-69
2023/03/17 02:49:55;;;;;;;16.52;6.57;;;2.40;81.20;;;;;;5133001;27;20239;-70
2023/03/17 02:52:26;;;;;;;7.00;4.88;;;2.40;81.50;;;;;;5132508;27;20217;-70
2023/03/17 02:55:01;;;;;;;7.45;4.47;;;2.50;81.10;;;;;;5132584;27;20196;-69
2023/03/17 02:57:45;;;;;;;6.70;3.88;;;2.50;80.50;;;;;;5133538;27;20196;-69
2023/03/17 03:00:20;;;;;;;7.85;4.45;;;2.50;80.70;;;;;;5131490;28;20198;-70
2023/03/17 03:02:55;;;;;;;6.10;4.50;;;2.50;81.00;;;;;;5133470;28;20189;-69
2023/03/17 03:05:28;;;;;;;8.75;4.00;;;2.60;81.00;;;;;;5132700;28;20186;-69
2023/03/17 03:08:07;;;;;;;6.70;4.30;;;2.60;79.40;;;;;;5133586;28;20198;-69
2023/03/17 03:10:40;;;;;;;4.80;3.60;;;2.50;78.20;;;;;;5130167;28;20261;-79
2023/03/17 03:13:14;;;;;;;7.10;3.78;;;2.50;78.40;;;;;;5112420;28;20219;-70
2023/03/17 03:15:46;;;;;;;6.13;3.45;;;2.50;77.40;;;;;;5130967;28;20233;-69
2023/03/17 03:18:29;;;;;;;5.00;3.85;;;2.50;76.90;;;;;;5131663;28;20181;-70
2023/03/17 03:21:02;;;;;;;6.97;3.60;;;2.40;76.90;;;;;;5132421;28;20186;-70
2023/03/17 03:23:42;;;;;;;9.23;4.18;;;2.40;76.70;;;;;;5132772;28;20254;-70
2023/03/17 03:26:27;;;;;;;7.40;4.47;;;2.40;77.10;;;;;;5133057;28;20768;-69
2023/03/17 03:29:02;;;;;;;6.93;4.85;;;2.30;78.80;;;;;;5131692;28;20664;-69
2023/03/17 03:31:31;;;;;;;9.23;5.13;;;2.30;78.70;;;;;;5133109;28;20549;-69
2023/03/17 03:34:02;;;;;;;6.50;4.30;;;2.20;79.00;;;;;;5131960;28;20643;-70
2023/03/17 03:36:31;;;;;;;7.95;4.35;;;2.30;79.60;;;;;;5132973;27;20226;-70
2023/03/17 03:39:07;;;;;;;6.22;3.55;;;2.20;79.80;;;;;;5133318;27;20643;-69
2023/03/17 03:41:48;;;;;;;8.13;3.80;;;2.20;79.40;;;;;;5116535;28;20225;-69
2023/03/17 03:44:31;;;;;;;6.95;4.13;;;2.20;80.00;;;;;;5135994;27;20192;-73
2023/03/17 03:47:17;;;;;;;5.63;3.45;;;2.20;81.20;;;;;;5136648;27;20225;-72
2023/03/17 03:49:53;;;;;;;7.20;4.95;;;2.30;81.80;;;;;;5137083;27;20542;-69
2023/03/17 03:52:28;;;;;;;7.88;4.28;;;2.30;81.80;;;;;;5135830;27;20252;-75
2023/03/17 03:54:58;;;;;;;9.20;4.90;;;2.40;81.90;;;;;;5116182;28;20197;-69
2023/03/17 03:57:31;;;;;;;8.25;5.25;;;2.30;82.60;;;;;;5119628;27;20190;-70
2023/03/17 04:00:01;;;;;;;8.27;5.25;;;2.40;82.70;;;;;;5115920;28;20243;-69
2023/03/17 04:02:43;;;;;;;7.68;5.10;;;2.50;82.70;;;;;;5119807;27;20188;-69
2023/03/17 04:05:13;;;;;;;8.75;6.18;;;2.50;82.50;;;;;;5136267;27;20271;-69
2023/03/17 04:07:43;;;;;;;5.78;4.13;;;2.50;82.00;;;;;;5135516;27;20182;-69
2023/03/17 04:10:16;;;;;;;7.68;4.63;;;2.60;82.20;;;;;;5136131;27;20190;-69
2023/03/17 04:12:56;;;;;;;5.07;3.60;;;2.60;81.90;;;;;;5135230;27;20210;-69
2023/03/17 04:15:33;;;;;;;7.20;3.95;;;;;;;;;;5136299;27;20285;-74
2023/03/17 04:18:05;;;;;;;5.22;3.70;;;2.70;80.70;;;;;;5135353;27;20217;-69
2023/03/17 04:20:42;;;;;;;10.68;6.05;;;2.70;80.80;;;;;;5136495;27;20681;-70
2023/03/17 04:23:17;;;;;;;7.65;4.95;;;2.70;80.00;;;;;;5135020;27;20648;-69
2023/03/17 04:25:46;;;;;;;8.52;4.78;;;2.70;79.80;;;;;;5136245;27;20744;-69
2023/03/17 04:28:15;;;;;;;5.10;3.60;;;2.70;79.10;;;;;;5135614;27;20182;-69
2023/03/17 04:30:52;;;;;;;7.70;4.18;;;2.70;78.40;;;;;;5135989;27;20649;-69
2023/03/17 04:33:27;;;;;;;9.38;4.88;;;2.60;78.00;;;;;;5135672;27;20212;-69
2023/03/17 04:36:00;;;;;;;8.77;4.82;;;2.50;78.90;;;;;;5134557;27;20545;-69
2023/03/17 04:38:34;;;;;;;7.60;5.32;;;2.50;79.40;;;;;;5135901;27;20186;-70
2023/03/17 04:41:15;;;;;;;9.63;5.18;;;2.50;79.60;;;;;;5134341;27;20622;-69
2023/03/17 04:43:54;;;;;;;8.00;6.47;;;2.50;79.70;;;;;;5115368;28;20193;-69
2023/03/17 04:46:22;;;;;;;8.00;5.72;;;2.50;80.00;;;;;;5124670;27;20277;-70
2023/03/17 04:49:02;;;;;;;6.35;5.32;;;2.50;80.00;;;;;;5135560;27;20192;-69
2023/03/17 04:51:40;;;;;;;6.65;4.85;;;2.50;80.20;;;;;;5134171;27;20242;-69
2023/03/17 04:54:10;;;;;;;7.63;4.30;;;2.50;80.40;;;;;;5135357;27;20359;-71
2023/03/17 04:56:39;;;;;;;6.68;4.35;;;2.40;80.70;;;;;;5135029;27;20241;-70
2023/03/17 04:59:13;;;;;;;9.15;5.28;;;2.40;81.10;;;;;;5134577;27;20219;-69
2023/03/17 05:01:56;;;;;;;8.70;5.05;;;2.40;81.30;;;;;;5135100;27;20224;-69
2023/03/17 05:04:32;;;;;;;9.57;5.43;;;2.40;81.50;;;;;;5134010;27;20190;-71
2023/03/17 05:07:06;;;;;;;8.40;4.97;;;2.40;82.60;;;;;;5134477;27;20185;-69
2023/03/17 05:09:36;;;;;;;8.93;5.88;;;2.30;82.50;;;;;;5134430;27;20190;-69
2023/03/17 05:12:13;;;;;;;7.82;4.60;;;2.30;83.00;;;;;;5135417;27;20211;-69
2023/03/17 05:14:46;;;;;;;9.05;6.03;;;2.30;83.30;;;;;;5134241;27;20185;-72
2023/03/17 05:17:19;;;;;;;6.90;4.78;;;2.30;83.10;;;;;;5135414;27;20227;-69
2023/03/17 05:19:49;;;;;;;11.18;4.78;;;2.30;82.60;;;;;;5134135;27;20186;-69
2023/03/17 05:22:19;;;;;;;7.43;4.95;;;2.30;82.40;;;;;;5135229;27;20204;-69
2023/03/17 05:24:55;;;;;;;7.00;4.78;;;2.20;82.50;;;;;;5133818;27;20177;-69
2023/03/17 05:27:27;;;;;;;7.63;4.32;;;2.20;82.80;;;;;;5135393;27;20206;-69
2023/03/17 05:30:01;;;;;;;5.45;3.70;;;2.20;82.60;;;;;;5134256;27;20281;-69
2023/03/17 05:32:36;;;;;;;5.90;4.25;;;2.20;82.90;;;;;;5134898;27;20678;-69
2023/03/17 05:35:10;;;;;;;7.90;4.85;;;2.20;83.30;;;;;;5133397;27;20188;-69
2023/03/17 05:37:52;;;;;;;6.75;4.65;;;2.30;83.20;;;;;;5133832;27;20185;-70
2023/03/17 05:40:27;;;;;;;10.07;6.00;;;2.40;83.00;;;;;;5134963;27;20195;-69
2023/03/17 05:43:11;;;;;;;6.88;3.85;;;2.40;82.60;;;;;;5133865;27;20181;-69
2023/03/17 05:45:54;;;;;;;6.75;5.25;;;2.40;82.60;;;;;;5134584;27;20190;-69
2023/03/17 05:48:29;;;;;;;7.78;6.55;;;2.40;83.20;;;;;;5133134;27;20648;-69
2023/03/17 05:51:03;;;;;;;8.40;4.75;;;2.40;83.30;;;;;;5134397;27;20211;-74
2023/03/17 05:53:41;;;;;;;8.30;5.40;;;2.40;83.70;;;;;;5129870;27;20684;-70
2023/03/17 05:56:12;;;;;;;7.97;6.20;;;2.40;84.00;;;;;;5133991;27;20197;-70
2023/03/17 05:58:55;;;;;;;7.40;6.07;;;2.40;84.10;;;;;;5133753;27;20283;-69
2023/03/17 06:01:30;;;;;;;11.20;6.50;;;2.50;83.90;;;;;;5132647;27;20219;-79
2023/03/17 06:04:03;;;;;;;9.45;6.10;;;2.60;84.20;;;;;;5133285;27;20548;-70
2023/03/17 06:06:35;;;;;;;6.50;5.85;;;2.60;84.00;;;;;;5133623;27;20287;-70
2023/03/17 06:09:08;;;;;;;8.98;6.55;;;2.70;83.50;;;;;;5133020;27;20181;-70
2023/03/17 06:11:40;;;;;;;14.82;9.45;;;2.80;83.00;;;;;;5133369;27;20542;-69
2023/03/17 06:14:13;;;;;;;9.75;6.90;;;2.90;83.50;;;;;;5113557;28;20254;-69
2023/03/17 06:16:57;;;;;;;8.95;5.75;;;3.00;84.10;;;;;;5115991;27;20240;-69
2023/03/17 06:19:29;;;;;;;40.30;15.40;;;3.10;84.20;;;;;;5134282;27;20190;-70
2023/03/17 06:22:01;;;;;;;58.28;28.45;;;3.30;84.20;;;;;;5133352;27;20295;-69
2023/03/17 06:24:30;;;;;;;14.85;9.65;;;3.40;83.60;;;;;;5133938;27;20186;-69
2023/03/17 06:27:00;;;;;;;16.50;10.20;;;3.60;83.00;;;;;;5132744;27;20613;-70
2023/03/17 06:29:37;;;;;;;44.67;22.27;;;3.60;81.80;;;;;;5134048;27;20194;-69
2023/03/17 06:32:10;;;;;;;31.67;16.23;;;3.80;80.80;;;;;;5129379;27;20601;-69
2023/03/17 06:34:48;;;;;;;21.08;9.20;;;3.90;79.90;;;;;;5125864;27;20214;-69
2023/03/17 06:37:20;;;;;;;18.10;9.43;;;4.00;79.20;;;;;;5130841;27;20194;-70
2023/03/17 06:39:52;;;;;;;19.08;7.93;;;4.10;78.30;;;;;;5129898;27;20219;-69
2023/03/17 06:42:24;;;;;;;228.38;99.70;;;4.10;77.60;;;;;;5113482;28;20188;-70
2023/03/17 06:44:52;;;;;;;215.38;93.28;;;4.10;77.30;;;;;;5124671;27;20650;-72
2023/03/17 06:47:20;;;;;;;53.00;30.45;;;4.20;77.50;;;;;;5133647;27;20653;-70
2023/03/17 06:49:47;;;;;;;240.73;109.78;;;4.20;77.40;;;;;;5133767;27;20200;-70
2023/03/17 06:52:15;;;;;;;218.80;100.47;;;4.30;77.30;;;;;;5126598;27;20198;-70
2023/03/17 06:54:43;;;;;;;90.78;43.15;;;4.50;77.40;;;;;;5112733;28;20219;-69
2023/03/17 06:57:18;;;;;;;31.98;15.75;;;4.60;77.00;;;;;;5125737;27;20270;-70
2023/03/17 06:59:48;;;;;;;17.85;11.05;;;4.80;76.80;;;;;;5133398;28;20279;-70
2023/03/17 07:02:25;;;;;;;11.63;7.82;;;5.10;76.30;;;;;;5133158;28;20220;-71
2023/03/17 07:04:52;;;;;;;12.80;7.72;;;5.30;75.60;;;;;;5126163;28;20266;-70
2023/03/17 07:07:23;;;;;;;6.88;5.72;;;5.70;75.20;;;;;;5112594;28;20282;-70
2023/03/17 07:09:51;;;;;;;7.05;5.10;;;6.20;74.40;;;;;;5111904;28;20206;-70
2023/03/17 07:12:18;;;;;;;13.02;9.68;;;6.90;72.60;;;;;;5114614;27;20199;-71
2023/03/17 07:14:49;;;;;;;8.68;6.45;;;7.60;69.10;;;;;;5116549;27;20220;-71
2023/03/17 07:17:17;;;;;;;6.82;4.57;;;8.60;64.80;;;;;;5116135;27;20978;-70
2023/03/17 07:19:51;;;;;;;17.23;10.52;;;10.30;57.70;;;;;;5119291;27;20198;-71
2023/03/17 07:22:21;;;;;;;14.27;7.53;;;12.30;52.20;;;;;;5121675;27;20185;-70
2023/03/17 07:24:51;;;;;;;6.15;4.32;;;14.10;47.00;;;;;;5132209;27;20192;-70
2023/03/17 07:27:20;;;;;;;8.70;3.50;;;15.70;41.60;;;;;;5128692;27;20176;-73
2023/03/17 07:29:50;;;;;;;6.65;4.70;;;17.60;37.80;;;;;;5115803;27;20200;-71
2023/03/17 07:32:17;;;;;;;8.23;5.33;;;19.50;34.30;;;;;;5125492;27;20179;-71
2023/03/17 07:34:58;;;;;;;9.13;6.73;;;21.40;30.80;;;;;;5134156;27;20481;-71
2023/03/17 07:37:32;;;;;;;8.57;6.37;;;23.30;28.00;;;;;;5123723;27;20446;-71
2023/03/17 07:39:59;;;;;;;13.70;9.40;;;24.40;26.00;;;;;;5119741;27;20433;-72
2023/03/17 07:42:32;;;;;;;12.97;8.83;;;25.10;24.90;;;;;;5116881;27;20512;-71
2023/03/17 07:45:00;;;;;;;9.00;6.50;;;26.30;23.60;;;;;;5119681;27;20430;-71
2023/03/17 07:47:29;;;;;;;5.43;3.47;;;27.10;22.70;;;;;;5130514;27;20490;-73
2023/03/17 07:49:56;;;;;;;7.93;4.13;;;27.00;20.60;;;;;;5127269;27;20559;-72
2023/03/17 07:52:29;;;;;;;7.27;4.83;;;27.00;21.00;;;;;;5119433;27;20446;-71
2023/03/17 07:55:02;;;;;;;6.93;4.73;;;27.40;20.60;;;;;;5132975;27;20429;-73
2023/03/17 07:57:30;;;;;;;8.00;6.07;;;27.40;20.40;;;;;;5120091;27;20777;-72
2023/03/17 07:59:58;;;;;;;7.47;5.63;;;27.30;20.20;;;;;;5121446;27;20437;-72
2023/03/17 08:02:25;;;;;;;5.70;4.50;;;27.30;19.80;;;;;;5102726;27;20473;-76
2023/03/17 08:04:53;;;;;;;5.00;3.00;;;27.50;19.40;;;;;;5106158;28;20896;-72
2023/03/17 08:07:21;;;;;;;4.50;2.43;;;28.60;19.60;;;;;;5095817;28;20446;-75
2023/03/17 08:09:48;;;;;;;3.73;2.60;;;30.50;18.30;;;;;;5093639;28;20831;-76
2023/03/17 08:12:17;;;;;;;5.00;3.27;;;32.40;17.00;;;;;;5095720;28;20508;-74
2023/03/17 08:14:45;;;;;;;4.80;2.60;;;33.70;15.70;;;;;;5097747;28;20493;-72
2023/03/17 08:17:12;;;;;;;4.70;2.37;;;34.40;14.70;;;;;;5094444;28;20438;-72
2023/03/17 08:19:40;;;;;;;5.57;2.10;;;34.70;15.10;;;;;;5094763;28;20795;-74
2023/03/17 08:22:08;;;;;;;4.83;2.50;;;35.50;14.00;;;;;;5094643;28;20478;-72
2023/03/17 08:24:35;;;;;;;4.53;2.43;;;36.00;13.00;;;;;;5099217;28;21091;-72
2023/03/17 08:27:04;;;;;;;4.57;2.63;;;36.30;12.50;;;;;;5112727;28;20453;-72
2023/03/17 08:29:32;;;;;;;5.13;3.20;;;36.60;12.30;;;;;;5112862;28;20438;-73
2023/03/17 08:32:00;;;;;;;3.00;1.93;;;37.30;11.70;;;;;;5098942;28;20438;-72
2023/03/17 08:34:27;;;;;;;4.10;1.80;;;38.50;11.40;;;;;;5095441;28;20530;-73
2023/03/17 08:36:55;;;;;;;3.37;2.03;;;39.40;10.50;;;;;;5111808;28;20430;-72
2023/03/17 08:39:23;;;;;;;2.90;1.93;;;39.90;10.20;;;;;;5105344;28;20896;-73
2023/03/17 08:41:50;;;;;;;3.27;1.90;;;40.40;9.50;;;;;;5097849;28;20439;-70
2023/03/17 08:44:18;;;;;;;3.43;2.00;;;40.90;9.50;;;;;;5097502;28;20542;-71
2023/03/17 08:46:48;;;;;;;2.80;1.90;;;42.00;9.30;;;;;;5096531;28;20827;-71
2023/03/17 08:49:16;;;;;;;4.67;2.00;;;;;;;;;;5104148;28;20543;-71
2023/03/17 08:51:46;;;;;;;4.43;1.53;;;42.90;9.00;;;;;;5099278;28;20437;-71
2023/03/17 08:54:16;;;;;;;4.37;1.53;;;43.80;7.30;;;;;;5104864;28;20497;-76
2023/03/17 08:56:43;;;;;;;3.57;2.20;;;43.40;7.30;;;;;;5097036;28;20530;-71
2023/03/17 08:59:11;;;;;;;3.00;1.83;;;43.10;7.30;;;;;;5100581;28;20442;-71
2023/03/17 09:01:39;;;;;;;5.57;1.90;;;43.10;6.90;;;;;;5101597;28;20510;-71
2023/03/17 09:04:07;;;;;;;2.60;1.60;;;43.40;7.10;;;;;;5104971;28;20430;-71
2023/03/17 09:06:35;;;;;;;5.00;2.03;;;43.90;7.10;;;;;;5102248;28;20438;-75
2023/03/17 09:09:02;;;;;;;2.90;1.37;;;44.40;7.20;;;;;;5100335;28;20925;-74
2023/03/17 09:11:32;;;;;;;3.83;1.40;;;44.70;6.50;;;;;;5107639;28;20492;-71
2023/03/17 09:14:02;;;;;;;2.10;1.20;;;44.90;6.30;;;;;;5102763;28;20895;-70
2023/03/17 09:16:32;;;;;;;3.87;1.70;;;45.20;6.00;;;;;;5096348;28;20958;-72
2023/03/17 09:19:00;;;;;;;4.80;1.60;;;45.30;6.30;;;;;;5101014;28;20446;-70
2023/03/17 09:21:28;;;;;;;3.87;1.80;;;45.70;6.50;;;;;;5103987;28;20811;-71
2023/03/17 09:23:56;;;;;;;3.20;1.30;;;45.90;5.80;;;;;;5099067;28;20445;-71
2023/03/17 09:26:25;;;;;;;2.60;1.50;;;46.20;6.20;;;;;;5103909;28;20442;-71
2023/03/17 09:28:53;;;;;;;3.10;1.70;;;46.30;6.20;;;;;;5105090;28;20433;-73
2023/03/17 09:31:20;;;;;;;3.63;1.53;;;46.40;6.50;;;;;;5103785;28;20443;-71
2023/03/17 09:33:53;;;;;;;3.13;1.97;;;47.30;6.60;;;;;;5101061;28;20481;-72
2023/03/17 09:36:20;;;;;;;4.87;1.70;;;48.40;6.30;;;;;;5106392;28;20496;-74
2023/03/17 09:38:50;;;;;;;5.03;1.70;;;48.80;6.10;;;;;;5101639;28;20427;-71
2023/03/17 09:41:49;;;;;;;7.00;2.23;;;48.80;5.60;;;;;;5109103;28;20454;-71
2023/03/17 09:44:30;;;;;;;5.47;2.10;;;49.30;5.60;;;;;;5097796;28;20583;-71
2023/03/17 09:47:08;;;;;;;2.90;1.93;;;49.80;4.90;;;;;;5100538;28;20460;-71
2023/03/17 09:49:43;;;;;;;4.00;2.07;;;49.90;4.80;;;;;;5099084;28;20435;-74
2023/03/17 09:52:13;;;;;;;4.77;2.23;;;49.80;4.40;;;;;;5102939;28;20529;-71
2023/03/17 09:54:45;;;;;;;4.67;1.90;;;49.90;4.60;;;;;;5102381;28;20566;-71
2023/03/17 09:57:16;;;;;;;4.50;2.70;;;49.60;4.60;;;;;;5102584;28;20462;-72
2023/03/17 09:59:46;;;;;;;5.43;1.63;;;49.00;4.60;;;;;;5097268;28;20442;-82
2023/03/17 10:02:21;;;;;;;2.97;1.83;;;48.20;4.80;;;;;;5115181;27;20559;-71
2023/03/17 10:04:49;;;;;;;4.13;2.03;;;47.40;4.50;;;;;;5122598;27;20768;-71
2023/03/17 10:07:21;;;;;;;4.77;2.23;;;46.30;5.20;;;;;;5122313;27;20434;-71
2023/03/17 10:09:59;;;;;;;7.13;2.10;;;45.30;5.00;;;;;;5114567;27;20439;-74
2023/03/17 10:12:38;;;;;;;3.67;1.67;;;44.00;5.50;;;;;;5118816;27;20441;-71
2023/03/17 10:15:14;;;;;;;3.23;1.80;;;43.00;5.80;;;;;;5123028;27;20559;-71
2023/03/17 10:17:42;;;;;;;3.63;1.90;;;42.40;5.90;;;;;;5123314;27;22155;-70
2023/03/17 10:20:16;;;;;;;4.13;1.83;;;42.10;6.30;;;;;;5122626;27;20524;-71
2023/03/17 10:22:47;;;;;;;3.13;1.97;;;41.80;6.30;;;;;;5112353;27;20521;-71
2023/03/17 10:25:18;;;;;;;3.33;1.90;;;41.50;6.90;;;;;;5119287;27;20524;-71
2023/03/17 10:27:51;;;;;;;4.70;2.00;;;41.20;6.80;;;;;;5128218;27;20433;-72
2023/03/17 10:30:22;;;;;;;3.67;1.80;;;41.20;7.40;;;;;;5119575;27;20417;-71
2023/03/17 10:32:52;;;;;;;2.97;1.93;;;41.00;7.40;;;;;;5129036;27;20433;-70
2023/03/17 10:35:20;;;;;;;3.13;1.80;;;40.70;7.20;;;;;;5128456;27;20541;-71
2023/03/17 10:37:48;;;;;;;5.40;2.20;;;40.40;6.80;;;;;;5130116;27;20429;-71
2023/03/17 10:40:27;;;;;;;3.67;1.80;;;40.30;7.50;;;;;;5122665;27;20433;-71
2023/03/17 10:43:00;;;;;;;3.70;1.70;;;40.30;7.90;;;;;;5112127;27;20800;-72
2023/03/17 10:45:29;;;;;;;3.43;1.60;;;40.70;7.90;;;;;;5119726;27;20442;-71
2023/03/17 10:47:58;;;;;;;2.53;1.30;;;41.20;7.30;;;;;;5129320;27;20433;-72
2023/03/17 10:50:29;;;;;;;2.80;1.30;;;41.40;7.40;;;;;;5127605;27;20430;-71
2023/03/17 10:52:59;;;;;;;2.60;1.30;;;41.80;7.00;;;;;;5112117;28;20563;-72
2023/03/17 10:55:31;;;;;;;2.97;1.20;;;42.70;8.10;;;;;;5114735;27;20478;-72
2023/03/17 10:58:04;;;;;;;2.33;1.03;;;43.90;6.90;;;;;;5119840;27;20520;-72
2023/03/17 11:00:34;;;;;;;2.40;1.40;;;44.30;6.30;;;;;;5124293;27;20469;-71
2023/03/17 11:03:19;;;;;;;2.30;0.90;;;43.90;6.60;;;;;;5107863;28;20426;-73
2023/03/17 11:05:55;;;;;;;2.40;1.20;;;43.00;6.60;;;;;;5109050;28;20787;-71
2023/03/17 11:08:23;;;;;;;3.40;1.30;;;42.30;7.40;;;;;;5098888;28;20442;-72
2023/03/17 11:10:56;;;;;;;2.30;1.10;;;42.70;7.30;;;;;;5109556;28;20434;-71
2023/03/17 11:13:29;;;;;;;2.10;1.00;;;43.20;6.50;;;;;;5099529;28;20530;-71
2023/03/17 11:16:17;;;;;;;2.90;1.40;;;43.70;6.20;;;;;;5110138;28;20933;-71
2023/03/17 11:18:47;;;;;;;2.40;1.10;;;43.90;6.50;;;;;;5106079;28;20426;-71
2023/03/17 11:21:18;;;;;;;2.03;0.97;;;44.00;6.00;;;;;;5091536;28;20443;-71
2023/03/17 11:23:50;;;;;;;2.60;1.50;;;43.50;6.00;;;;;;5108601;28;20850;-71
2023/03/17 11:26:33;;;;;;;2.27;1.43;;;43.10;6.30;;;;;;5109230;28;20431;-71
2023/03/17 11:29:21;;;;;;;3.80;1.50;;;42.40;6.20;;;;;;5097163;28;20825;-71
2023/03/17 11:31:56;;;;;;;2.23;1.17;;;41.50;7.30;;;;;;5091636;28;20518;-76
2023/03/17 11:34:34;;;;;;;2.10;1.03;;;40.50;7.80;;;;;;5109118;28;20470;-71
2023/03/17 11:37:10;;;;;;;2.10;1.17;;;39.40;8.00;;;;;;5105426;28;20438;-71
2023/03/17 11:39:48;;;;;;;2.40;1.20;;;38.00;7.70;;;;;;5094624;28;20513;-71
2023/03/17 11:42:21;;;;;;;2.73;0.93;;;36.40;8.20;;;;;;5094521;28;20525;-70
2023/03/17 11:45:15;;;;;;;2.60;1.20;;;35.20;7.90;;;;;;5091944;28;21095;-71
2023/03/17 11:48:16;;;;;;;2.37;0.90;;;34.00;8.90;;;;;;5094031;28;20890;-70
2023/03/17 11:50:54;;;;;;;2.27;0.97;;;33.00;9.90;;;;;;5044819;28;20443;-70
2023/03/17 11:53:44;;;;;;;2.57;1.00;;;32.30;10.20;;;;;;5094426;28;20423;-70
2023/03/17 11:56:17;;;;;;;3.30;0.93;;;31.90;9.20;;;;;;5094976;28;20913;-70
2023/03/17 11:58:50;;;;;;;2.30;0.87;;;31.60;10.20;;;;;;5109853;28;20434;-70
2023/03/17 12:01:25;;;;;;;2.13;0.83;;;31.70;9.60;;;;;;5107705;28;20545;-70
2023/03/17 12:04:01;;;;;;;2.30;1.13;;;31.90;11.30;;;;;;5112754;28;20540;-70
2023/03/17 12:06:33;;;;;;;2.00;0.77;;;32.40;10.10;;;;;;5097702;28;20824;-70
2023/03/17 12:09:06;;;;;;;2.03;0.80;;;32.50;9.80;;;;;;5098024;28;20445;-70
2023/03/17 12:11:38;;;;;;;2.77;0.93;;;32.80;10.00;;;;;;5098601;28;20431;-70
2023/03/17 12:14:20;;;;;;;3.03;1.10;;;33.40;10.40;;;;;;5092267;28;20566;-70
2023/03/17 12:16:55;;;;;;;4.93;1.27;;;34.20;9.80;;;;;;5092215;28;20445;-81
2023/03/17 12:19:29;;;;;;;3.20;0.93;;;35.00;9.30;;;;;;5091171;28;20589;-73
2023/03/17 12:22:01;;;;;;;2.70;1.50;;;35.50;9.00;;;;;;5098642;28;20523;-71
2023/03/17 12:24:35;;;;;;;5.07;1.03;;;36.30;8.90;;;;;;5096770;28;20471;-71
2023/03/17 12:27:08;;;;;;;4.40;2.67;;;36.90;9.00;;;;;;5095776;28;20436;-73
2023/03/17 12:29:46;;;;;;;2.30;1.03;;;37.10;9.00;;;;;;5112253;28;20430;-71
2023/03/17 12:32:19;;;;;;;2.67;1.60;;;36.40;9.00;;;;;;5112015;28;20438;-70
2023/03/17 12:34:51;;;;;;;3.17;1.17;;;35.60;9.60;;;;;;5097285;28;20470;-71
2023/03/17 12:37:23;;;;;;;3.80;1.47;;;35.30;10.40;;;;;;5104395;28;20435;-71
2023/03/17 12:39:59;;;;;;;2.30;1.00;;;35.30;10.70;;;;;;5095659;28;20446;-73
2023/03/17 12:42:37;;;;;;;2.87;1.47;;;35.90;10.90;;;;;;5100817;28;20533;-71
2023/03/17 12:45:38;;;;;;;2.30;1.17;;;36.50;10.60;;;;;;5111350;28;20520;-70
2023/03/17 12:48:31;;;;;;;2.73;1.37;;;36.30;9.60;;;;;;5098877;28;20877;-71
2023/03/17 12:51:23;;;;;;;2.30;1.40;;;35.80;9.80;;;;;;5101920;28;20430;-70
2023/03/17 12:53:51;;;;;;;2.27;1.33;;;35.10;10.30;;;;;;5097566;28;20503;-70
2023/03/17 12:56:22;;;;;;;3.40;1.33;;;34.60;11.20;;;;;;5099878;28;20482;-70
2023/03/17 12:58:54;;;;;;;2.30;1.10;;;34.20;11.30;;;;;;5096844;28;20791;-71
2023/03/17 13:01:31;;;;;;;4.00;1.50;;;33.80;11.20;;;;;;5107905;27;20464;-70
2023/03/17 13:04:14;;;;;;;4.30;1.67;;;33.70;11.70;;;;;;5118002;27;20434;-70
2023/03/17 13:06:45;;;;;;;2.07;1.03;;;33.50;12.40;;;;;;5114355;27;20548;-71
2023/03/17 13:09:44;;;;;;;3.00;1.80;;;33.30;12.90;;;;;;5116233;27;20434;-73
2023/03/17 13:13:03;;;;;;;2.83;1.50;;;32.70;12.90;;;;;;5113934;27;20878;-70
2023/03/17 13:15:54;;;;;;;7.00;1.57;;;31.80;14.30;;;;;;5114888;27;20571;-70
2023/03/17 13:18:45;;;;;;;3.20;1.70;;;30.90;15.30;;;;;;5119627;27;20441;-71
2023/03/17 13:21:16;;;;;;;2.53;1.40;;;30.30;15.40;;;;;;5126384;27;20468;-70
2023/03/17 13:23:46;;;;;;;2.50;1.33;;;29.60;16.10;;;;;;5129004;27;20453;-70
2023/03/17 13:26:17;;;;;;;2.40;1.40;;;28.90;16.90;;;;;;5111223;27;20442;-71
2023/03/17 13:28:48;;;;;;;3.20;1.60;;;28.50;17.50;;;;;;5123021;27;20986;-69